sensor_id;sensor_type;location;lat;lon;timestamp;P1;durP1;ratioP1;P2;durP2;ratioP2
64674;SDS011;51090;51.512;11.332;2023-01-19T00:00:09;17.67;;;8.27;;
64674;SDS011;51090;51.512;11.332;2023-01-19T00:02:37;19.30;;;7.90;;
64674;SDS011;51090;51.512;11.332;2023-01-19T00:05:03;19.67;;;7.88;;
64674;SDS011;51090;51.512;11.332;2023-01-19T00:07:30;20.45;;;8.25;;
64674;SDS011;51090;51.512;11.332;2023-01-19T00:09:56;18.73;;;7.57;;
64674;SDS011;51090;51.512;11.332;2023-01-19T00:12:22;19.83;;;8.40;;
64674;SDS011;51090;51.512;11.332;2023-01-19T00:14:48;19.42;;;8.35;;
64674;SDS011;51090;51.512;11.332;2023-01-19T00:17:14;18.40;;;7.10;;
64674;SDS011;51090;51.512;11.332;2023-01-19T00:19:40;18.05;;;7.53;;
64674;SDS011;51090;51.512;11.332;2023-01-19T00:22:05;15.35;;;6.68;;
64674;SDS011;51090;51.512;11.332;2023-01-19T00:24:31;15.68;;;6.85;;
64674;SDS011;51090;51.512;11.332;2023-01-19T00:26:57;17.20;;;8.00;;
64674;SDS011;51090;51.512;11.332;2023-01-19T00:29:23;15.70;;;7.57;;
64674;SDS011;51090;51.512;11.332;2023-01-19T00:31:49;16.85;;;7.18;;
64674;SDS011;51090;51.512;11.332;2023-01-19T00:34:15;14.55;;;6.75;;
64674;SDS011;51090;51.512;11.332;2023-01-19T00:36:41;19.42;;;6.88;;
64674;SDS011;51090;51.512;11.332;2023-01-19T00:39:07;18.63;;;7.63;;
64674;SDS011;51090;51.512;11.332;2023-01-19T00:41:33;17.60;;;7.65;;
64674;SDS011;51090;51.512;11.332;2023-01-19T00:44:17;16.13;;;7.90;;
64674;SDS011;51090;51.512;11.332;2023-01-19T00:46:43;17.15;;;7.47;;
64674;SDS011;51090;51.512;11.332;2023-01-19T00:49:08;16.00;;;7.75;;
64674;SDS011;51090;51.512;11.332;2023-01-19T00:51:34;18.85;;;7.75;;
64674;SDS011;51090;51.512;11.332;2023-01-19T00:54:00;16.35;;;7.82;;
64674;SDS011;51090;51.512;11.332;2023-01-19T00:56:32;17.65;;;8.43;;
64674;SDS011;51090;51.512;11.332;2023-01-19T00:58:58;16.25;;;6.47;;
64674;SDS011;51090;51.512;11.332;2023-01-19T01:01:24;13.93;;;6.97;;
64674;SDS011;51090;51.512;11.332;2023-01-19T01:03:50;17.75;;;7.80;;
64674;SDS011;51090;51.512;11.332;2023-01-19T01:06:17;16.23;;;6.75;;
64674;SDS011;51090;51.512;11.332;2023-01-19T01:08:44;13.68;;;6.53;;
64674;SDS011;51090;51.512;11.332;2023-01-19T01:11:10;17.15;;;6.63;;
64674;SDS011;51090;51.512;11.332;2023-01-19T01:13:35;17.77;;;6.82;;
64674;SDS011;51090;51.512;11.332;2023-01-19T01:16:01;13.80;;;7.22;;
64674;SDS011;51090;51.512;11.332;2023-01-19T01:18:27;17.70;;;8.13;;
64674;SDS011;51090;51.512;11.332;2023-01-19T01:20:59;18.95;;;7.20;;
64674;SDS011;51090;51.512;11.332;2023-01-19T01:23:26;14.63;;;8.02;;
64674;SDS011;51090;51.512;11.332;2023-01-19T01:25:52;17.33;;;8.02;;
64674;SDS011;51090;51.512;11.332;2023-01-19T01:28:17;15.70;;;7.95;;
64674;SDS011;51090;51.512;11.332;2023-01-19T01:30:43;18.85;;;7.53;;
64674;SDS011;51090;51.512;11.332;2023-01-19T01:33:09;17.35;;;6.97;;
64674;SDS011;51090;51.512;11.332;2023-01-19T01:35:37;15.27;;;7.45;;
64674;SDS011;51090;51.512;11.332;2023-01-19T01:38:04;14.88;;;6.78;;
64674;SDS011;51090;51.512;11.332;2023-01-19T01:40:30;15.95;;;6.97;;
64674;SDS011;51090;51.512;11.332;2023-01-19T01:42:55;18.20;;;7.80;;
64674;SDS011;51090;51.512;11.332;2023-01-19T01:48:24;19.08;;;7.38;;
64674;SDS011;51090;51.512;11.332;2023-01-19T01:51:08;17.60;;;6.88;;
64674;SDS011;51090;51.512;11.332;2023-01-19T01:53:59;16.02;;;6.75;;
64674;SDS011;51090;51.512;11.332;2023-01-19T01:56:41;16.95;;;6.25;;
64674;SDS011;51090;51.512;11.332;2023-01-19T01:59:25;17.13;;;7.23;;
64674;SDS011;51090;51.512;11.332;2023-01-19T02:01:59;14.02;;;6.70;;
64674;SDS011;51090;51.512;11.332;2023-01-19T02:04:51;18.85;;;7.70;;
64674;SDS011;51090;51.512;11.332;2023-01-19T02:07:32;19.63;;;7.47;;
64674;SDS011;51090;51.512;11.332;2023-01-19T02:10:27;14.57;;;8.10;;
64674;SDS011;51090;51.512;11.332;2023-01-19T02:13:11;14.70;;;6.25;;
64674;SDS011;51090;51.512;11.332;2023-01-19T02:15:50;13.98;;;6.03;;
64674;SDS011;51090;51.512;11.332;2023-01-19T02:18:20;15.38;;;7.07;;
64674;SDS011;51090;51.512;11.332;2023-01-19T02:26:33;14.55;;;6.18;;
64674;SDS011;51090;51.512;11.332;2023-01-19T02:29:05;16.05;;;6.78;;
64674;SDS011;51090;51.512;11.332;2023-01-19T02:31:34;15.55;;;7.18;;
64674;SDS011;51090;51.512;11.332;2023-01-19T02:34:03;15.88;;;6.93;;
64674;SDS011;51090;51.512;11.332;2023-01-19T02:36:40;14.88;;;6.95;;
64674;SDS011;51090;51.512;11.332;2023-01-19T02:39:23;12.63;;;6.05;;
64674;SDS011;51090;51.512;11.332;2023-01-19T02:42:16;15.73;;;6.05;;
64674;SDS011;51090;51.512;11.332;2023-01-19T02:45:11;15.77;;;5.68;;
64674;SDS011;51090;51.512;11.332;2023-01-19T02:47:43;11.50;;;6.15;;
64674;SDS011;51090;51.512;11.332;2023-01-19T02:58:53;14.27;;;6.07;;
64674;SDS011;51090;51.512;11.332;2023-01-19T03:07:41;14.43;;;6.57;;
64674;SDS011;51090;51.512;11.332;2023-01-19T03:10:21;15.45;;;6.35;;
64674;SDS011;51090;51.512;11.332;2023-01-19T03:15:55;16.13;;;6.32;;
64674;SDS011;51090;51.512;11.332;2023-01-19T03:18:46;13.73;;;5.45;;
64674;SDS011;51090;51.512;11.332;2023-01-19T03:23:46;18.10;;;6.65;;
64674;SDS011;51090;51.512;11.332;2023-01-19T03:26:15;19.00;;;6.93;;
64674;SDS011;51090;51.512;11.332;2023-01-19T03:28:48;15.18;;;6.55;;
64674;SDS011;51090;51.512;11.332;2023-01-19T03:31:18;15.40;;;6.85;;
64674;SDS011;51090;51.512;11.332;2023-01-19T03:33:49;17.55;;;7.15;;
64674;SDS011;51090;51.512;11.332;2023-01-19T03:36:21;15.70;;;6.88;;
64674;SDS011;51090;51.512;11.332;2023-01-19T03:38:56;15.23;;;7.00;;
64674;SDS011;51090;51.512;11.332;2023-01-19T03:41:24;14.52;;;6.72;;
64674;SDS011;51090;51.512;11.332;2023-01-19T03:43:51;19.45;;;7.20;;
64674;SDS011;51090;51.512;11.332;2023-01-19T03:46:19;18.25;;;7.32;;
64674;SDS011;51090;51.512;11.332;2023-01-19T03:48:46;17.90;;;7.22;;
64674;SDS011;51090;51.512;11.332;2023-01-19T03:51:13;19.52;;;7.32;;
64674;SDS011;51090;51.512;11.332;2023-01-19T03:53:40;23.80;;;9.38;;
64674;SDS011;51090;51.512;11.332;2023-01-19T03:56:07;17.98;;;8.55;;
64674;SDS011;51090;51.512;11.332;2023-01-19T03:58:45;18.77;;;7.97;;
64674;SDS011;51090;51.512;11.332;2023-01-19T04:01:12;16.98;;;7.88;;
64674;SDS011;51090;51.512;11.332;2023-01-19T04:03:39;17.92;;;7.88;;
64674;SDS011;51090;51.512;11.332;2023-01-19T04:06:06;19.33;;;8.77;;
64674;SDS011;51090;51.512;11.332;2023-01-19T04:08:33;18.63;;;7.20;;
64674;SDS011;51090;51.512;11.332;2023-01-19T04:10:59;17.50;;;7.25;;
64674;SDS011;51090;51.512;11.332;2023-01-19T04:13:25;20.00;;;7.85;;
64674;SDS011;51090;51.512;11.332;2023-01-19T04:15:53;14.27;;;7.30;;
64674;SDS011;51090;51.512;11.332;2023-01-19T04:18:24;15.50;;;7.88;;
64674;SDS011;51090;51.512;11.332;2023-01-19T04:20:50;16.98;;;6.70;;
64674;SDS011;51090;51.512;11.332;2023-01-19T04:23:15;13.77;;;7.07;;
64674;SDS011;51090;51.512;11.332;2023-01-19T04:25:41;19.48;;;7.32;;
64674;SDS011;51090;51.512;11.332;2023-01-19T04:28:07;16.63;;;7.13;;
64674;SDS011;51090;51.512;11.332;2023-01-19T04:30:32;16.13;;;7.13;;
64674;SDS011;51090;51.512;11.332;2023-01-19T04:32:58;18.60;;;7.70;;
64674;SDS011;51090;51.512;11.332;2023-01-19T04:35:24;15.70;;;7.22;;
64674;SDS011;51090;51.512;11.332;2023-01-19T04:37:49;18.33;;;6.72;;
64674;SDS011;51090;51.512;11.332;2023-01-19T04:40:15;16.90;;;7.30;;
64674;SDS011;51090;51.512;11.332;2023-01-19T04:42:42;17.40;;;7.90;;
64674;SDS011;51090;51.512;11.332;2023-01-19T04:45:11;17.75;;;7.20;;
64674;SDS011;51090;51.512;11.332;2023-01-19T04:47:38;15.32;;;6.78;;
64674;SDS011;51090;51.512;11.332;2023-01-19T04:50:04;19.73;;;7.32;;
64674;SDS011;51090;51.512;11.332;2023-01-19T04:52:31;16.20;;;6.80;;
64674;SDS011;51090;51.512;11.332;2023-01-19T04:55:01;14.05;;;6.30;;
64674;SDS011;51090;51.512;11.332;2023-01-19T04:57:28;14.10;;;7.10;;
64674;SDS011;51090;51.512;11.332;2023-01-19T04:59:55;14.45;;;6.95;;
64674;SDS011;51090;51.512;11.332;2023-01-19T05:02:22;13.48;;;6.80;;
64674;SDS011;51090;51.512;11.332;2023-01-19T05:04:48;21.52;;;6.97;;
64674;SDS011;51090;51.512;11.332;2023-01-19T05:07:14;14.82;;;7.15;;
64674;SDS011;51090;51.512;11.332;2023-01-19T05:09:40;13.77;;;6.78;;
64674;SDS011;51090;51.512;11.332;2023-01-19T05:12:05;15.75;;;6.80;;
64674;SDS011;51090;51.512;11.332;2023-01-19T05:14:31;14.10;;;6.03;;
64674;SDS011;51090;51.512;11.332;2023-01-19T05:16:57;18.40;;;7.50;;
64674;SDS011;51090;51.512;11.332;2023-01-19T05:19:22;14.10;;;7.28;;
64674;SDS011;51090;51.512;11.332;2023-01-19T05:21:48;13.50;;;5.75;;
64674;SDS011;51090;51.512;11.332;2023-01-19T05:24:14;18.42;;;8.07;;
64674;SDS011;51090;51.512;11.332;2023-01-19T05:26:39;16.63;;;7.78;;
64674;SDS011;51090;51.512;11.332;2023-01-19T05:29:06;14.90;;;6.90;;
64674;SDS011;51090;51.512;11.332;2023-01-19T05:31:32;17.95;;;8.13;;
64674;SDS011;51090;51.512;11.332;2023-01-19T05:33:58;16.77;;;7.15;;
64674;SDS011;51090;51.512;11.332;2023-01-19T05:36:23;19.83;;;9.32;;
64674;SDS011;51090;51.512;11.332;2023-01-19T05:38:49;13.95;;;6.32;;
64674;SDS011;51090;51.512;11.332;2023-01-19T05:41:15;16.67;;;7.05;;
64674;SDS011;51090;51.512;11.332;2023-01-19T05:43:41;29.90;;;10.63;;
64674;SDS011;51090;51.512;11.332;2023-01-19T05:46:07;28.45;;;11.40;;
64674;SDS011;51090;51.512;11.332;2023-01-19T05:48:33;25.67;;;10.35;;
64674;SDS011;51090;51.512;11.332;2023-01-19T05:50:59;20.52;;;8.57;;
64674;SDS011;51090;51.512;11.332;2023-01-19T05:53:25;21.65;;;8.63;;
64674;SDS011;51090;51.512;11.332;2023-01-19T05:55:52;26.13;;;9.38;;
64674;SDS011;51090;51.512;11.332;2023-01-19T05:58:23;22.40;;;9.10;;
64674;SDS011;51090;51.512;11.332;2023-01-19T06:00:49;20.42;;;7.82;;
64674;SDS011;51090;51.512;11.332;2023-01-19T06:03:14;17.05;;;6.85;;
64674;SDS011;51090;51.512;11.332;2023-01-19T06:05:40;16.08;;;7.50;;
64674;SDS011;51090;51.512;11.332;2023-01-19T06:08:06;17.08;;;7.75;;
64674;SDS011;51090;51.512;11.332;2023-01-19T06:10:32;18.80;;;8.07;;
64674;SDS011;51090;51.512;11.332;2023-01-19T06:12:57;25.73;;;9.88;;
64674;SDS011;51090;51.512;11.332;2023-01-19T06:15:23;24.83;;;10.75;;
64674;SDS011;51090;51.512;11.332;2023-01-19T06:17:49;24.75;;;10.43;;
64674;SDS011;51090;51.512;11.332;2023-01-19T06:20:14;21.52;;;9.13;;
64674;SDS011;51090;51.512;11.332;2023-01-19T06:22:40;28.05;;;11.63;;
64674;SDS011;51090;51.512;11.332;2023-01-19T06:25:07;32.15;;;10.48;;
64674;SDS011;51090;51.512;11.332;2023-01-19T06:27:33;24.08;;;9.23;;
64674;SDS011;51090;51.512;11.332;2023-01-19T06:30:00;19.30;;;9.27;;
64674;SDS011;51090;51.512;11.332;2023-01-19T06:32:27;32.28;;;13.50;;
64674;SDS011;51090;51.512;11.332;2023-01-19T06:34:52;29.20;;;11.13;;
64674;SDS011;51090;51.512;11.332;2023-01-19T06:37:18;22.70;;;10.55;;
64674;SDS011;51090;51.512;11.332;2023-01-19T06:39:44;19.55;;;8.90;;
64674;SDS011;51090;51.512;11.332;2023-01-19T06:42:09;22.90;;;10.70;;
64674;SDS011;51090;51.512;11.332;2023-01-19T06:44:35;22.58;;;8.93;;
64674;SDS011;51090;51.512;11.332;2023-01-19T06:47:01;35.25;;;11.43;;
64674;SDS011;51090;51.512;11.332;2023-01-19T06:49:27;23.05;;;9.38;;
64674;SDS011;51090;51.512;11.332;2023-01-19T06:51:52;20.70;;;9.10;;
64674;SDS011;51090;51.512;11.332;2023-01-19T06:54:18;22.58;;;9.57;;
64674;SDS011;51090;51.512;11.332;2023-01-19T06:56:44;19.92;;;9.13;;
64674;SDS011;51090;51.512;11.332;2023-01-19T06:59:09;26.52;;;10.68;;
64674;SDS011;51090;51.512;11.332;2023-01-19T07:01:35;18.13;;;8.30;;
64674;SDS011;51090;51.512;11.332;2023-01-19T07:04:01;19.27;;;8.27;;
64674;SDS011;51090;51.512;11.332;2023-01-19T07:06:26;16.20;;;8.18;;
64674;SDS011;51090;51.512;11.332;2023-01-19T07:08:53;13.88;;;7.75;;
64674;SDS011;51090;51.512;11.332;2023-01-19T07:11:18;13.98;;;7.20;;
64674;SDS011;51090;51.512;11.332;2023-01-19T07:13:44;15.93;;;7.53;;
64674;SDS011;51090;51.512;11.332;2023-01-19T07:16:15;16.30;;;7.47;;
64674;SDS011;51090;51.512;11.332;2023-01-19T07:18:41;14.32;;;7.05;;
64674;SDS011;51090;51.512;11.332;2023-01-19T07:21:07;14.98;;;7.30;;
64674;SDS011;51090;51.512;11.332;2023-01-19T07:23:33;13.50;;;6.85;;
64674;SDS011;51090;51.512;11.332;2023-01-19T07:25:59;15.73;;;7.28;;
64674;SDS011;51090;51.512;11.332;2023-01-19T07:28:26;14.82;;;7.13;;
64674;SDS011;51090;51.512;11.332;2023-01-19T07:30:53;15.25;;;6.80;;
64674;SDS011;51090;51.512;11.332;2023-01-19T07:33:19;13.00;;;6.32;;
64674;SDS011;51090;51.512;11.332;2023-01-19T07:35:46;13.05;;;6.82;;
64674;SDS011;51090;51.512;11.332;2023-01-19T07:38:13;14.13;;;6.32;;
64674;SDS011;51090;51.512;11.332;2023-01-19T07:40:40;16.00;;;6.80;;
64674;SDS011;51090;51.512;11.332;2023-01-19T07:43:06;15.20;;;6.55;;
64674;SDS011;51090;51.512;11.332;2023-01-19T07:45:32;17.92;;;6.78;;
64674;SDS011;51090;51.512;11.332;2023-01-19T07:47:59;13.95;;;6.72;;
64674;SDS011;51090;51.512;11.332;2023-01-19T07:50:25;12.95;;;6.95;;
64674;SDS011;51090;51.512;11.332;2023-01-19T07:52:53;16.98;;;6.38;;
64674;SDS011;51090;51.512;11.332;2023-01-19T07:55:19;14.70;;;6.22;;
64674;SDS011;51090;51.512;11.332;2023-01-19T07:57:47;14.02;;;6.25;;
64674;SDS011;51090;51.512;11.332;2023-01-19T08:00:17;12.20;;;6.05;;
64674;SDS011;51090;51.512;11.332;2023-01-19T08:02:46;8.20;;;4.75;;
64674;SDS011;51090;51.512;11.332;2023-01-19T08:05:16;13.48;;;6.20;;
64674;SDS011;51090;51.512;11.332;2023-01-19T08:07:43;12.93;;;5.50;;
64674;SDS011;51090;51.512;11.332;2023-01-19T08:10:10;10.88;;;5.80;;
64674;SDS011;51090;51.512;11.332;2023-01-19T08:12:38;13.38;;;6.55;;
64674;SDS011;51090;51.512;11.332;2023-01-19T08:15:05;11.60;;;6.60;;
64674;SDS011;51090;51.512;11.332;2023-01-19T08:17:33;13.48;;;6.60;;
64674;SDS011;51090;51.512;11.332;2023-01-19T08:19:59;15.98;;;6.35;;
64674;SDS011;51090;51.512;11.332;2023-01-19T08:22:24;13.02;;;6.75;;
64674;SDS011;51090;51.512;11.332;2023-01-19T08:24:50;14.38;;;6.95;;
64674;SDS011;51090;51.512;11.332;2023-01-19T08:27:16;13.77;;;6.28;;
64674;SDS011;51090;51.512;11.332;2023-01-19T08:29:41;12.85;;;6.93;;
64674;SDS011;51090;51.512;11.332;2023-01-19T08:32:07;16.02;;;6.85;;
64674;SDS011;51090;51.512;11.332;2023-01-19T08:34:33;13.45;;;6.68;;
64674;SDS011;51090;51.512;11.332;2023-01-19T08:36:59;14.30;;;6.70;;
64674;SDS011;51090;51.512;11.332;2023-01-19T08:39:25;11.05;;;6.30;;
64674;SDS011;51090;51.512;11.332;2023-01-19T08:41:51;14.32;;;6.75;;
64674;SDS011;51090;51.512;11.332;2023-01-19T08:44:18;12.45;;;5.85;;
64674;SDS011;51090;51.512;11.332;2023-01-19T08:46:44;13.68;;;7.25;;
64674;SDS011;51090;51.512;11.332;2023-01-19T08:49:09;15.30;;;6.93;;
64674;SDS011;51090;51.512;11.332;2023-01-19T08:51:35;13.10;;;6.93;;
64674;SDS011;51090;51.512;11.332;2023-01-19T08:54:02;13.90;;;6.50;;
64674;SDS011;51090;51.512;11.332;2023-01-19T08:56:28;11.77;;;5.57;;
64674;SDS011;51090;51.512;11.332;2023-01-19T08:58:54;9.52;;;5.07;;
64674;SDS011;51090;51.512;11.332;2023-01-19T09:01:19;9.60;;;5.68;;
64674;SDS011;51090;51.512;11.332;2023-01-19T09:03:46;12.38;;;5.70;;
64674;SDS011;51090;51.512;11.332;2023-01-19T09:06:13;11.38;;;5.93;;
64674;SDS011;51090;51.512;11.332;2023-01-19T09:08:42;11.38;;;6.60;;
64674;SDS011;51090;51.512;11.332;2023-01-19T09:11:08;13.98;;;5.38;;
64674;SDS011;51090;51.512;11.332;2023-01-19T09:13:35;12.77;;;7.00;;
64674;SDS011;51090;51.512;11.332;2023-01-19T09:16:01;11.15;;;5.57;;
64674;SDS011;51090;51.512;11.332;2023-01-19T09:18:28;9.80;;;5.75;;
64674;SDS011;51090;51.512;11.332;2023-01-19T09:20:55;10.73;;;5.93;;
64674;SDS011;51090;51.512;11.332;2023-01-19T09:23:21;12.45;;;5.68;;
64674;SDS011;51090;51.512;11.332;2023-01-19T09:25:47;14.98;;;7.07;;
64674;SDS011;51090;51.512;11.332;2023-01-19T09:28:19;13.60;;;5.88;;
64674;SDS011;51090;51.512;11.332;2023-01-19T09:30:45;12.13;;;6.07;;
64674;SDS011;51090;51.512;11.332;2023-01-19T09:33:12;12.57;;;6.18;;
64674;SDS011;51090;51.512;11.332;2023-01-19T09:35:40;11.35;;;6.10;;
64674;SDS011;51090;51.512;11.332;2023-01-19T09:38:08;12.50;;;5.63;;
64674;SDS011;51090;51.512;11.332;2023-01-19T09:40:42;11.35;;;6.13;;
64674;SDS011;51090;51.512;11.332;2023-01-19T09:45:52;11.32;;;5.85;;
64674;SDS011;51090;51.512;11.332;2023-01-19T09:48:25;13.10;;;6.30;;
64674;SDS011;51090;51.512;11.332;2023-01-19T09:51:12;13.20;;;6.18;;
64674;SDS011;51090;51.512;11.332;2023-01-19T09:56:30;12.10;;;6.28;;
64674;SDS011;51090;51.512;11.332;2023-01-19T09:58:57;11.02;;;5.63;;
64674;SDS011;51090;51.512;11.332;2023-01-19T10:01:35;10.00;;;5.45;;
64674;SDS011;51090;51.512;11.332;2023-01-19T10:04:35;15.25;;;6.30;;
64674;SDS011;51090;51.512;11.332;2023-01-19T10:07:31;11.65;;;5.25;;
64674;SDS011;51090;51.512;11.332;2023-01-19T10:10:28;11.90;;;5.95;;
64674;SDS011;51090;51.512;11.332;2023-01-19T10:16:03;9.52;;;5.25;;
64674;SDS011;51090;51.512;11.332;2023-01-19T10:22:09;9.45;;;5.40;;
64674;SDS011;51090;51.512;11.332;2023-01-19T10:25:11;10.88;;;5.72;;
64674;SDS011;51090;51.512;11.332;2023-01-19T10:27:43;13.93;;;5.80;;
64674;SDS011;51090;51.512;11.332;2023-01-19T10:30:14;11.60;;;5.78;;
64674;SDS011;51090;51.512;11.332;2023-01-19T10:32:47;11.77;;;5.35;;
64674;SDS011;51090;51.512;11.332;2023-01-19T10:35:14;20.95;;;9.70;;
64674;SDS011;51090;51.512;11.332;2023-01-19T10:37:48;23.70;;;9.80;;
64674;SDS011;51090;51.512;11.332;2023-01-19T10:40:27;20.27;;;9.18;;
64674;SDS011;51090;51.512;11.332;2023-01-19T10:46:01;19.85;;;10.65;;
64674;SDS011;51090;51.512;11.332;2023-01-19T10:48:40;16.85;;;8.60;;
64674;SDS011;51090;51.512;11.332;2023-01-19T10:51:08;14.10;;;7.50;;
64674;SDS011;51090;51.512;11.332;2023-01-19T10:53:34;12.70;;;8.07;;
64674;SDS011;51090;51.512;11.332;2023-01-19T10:56:11;11.98;;;6.35;;
64674;SDS011;51090;51.512;11.332;2023-01-19T10:58:44;14.27;;;6.95;;
64674;SDS011;51090;51.512;11.332;2023-01-19T11:01:14;12.52;;;6.20;;
64674;SDS011;51090;51.512;11.332;2023-01-19T11:03:48;14.07;;;5.47;;
64674;SDS011;51090;51.512;11.332;2023-01-19T11:06:24;11.27;;;5.70;;
64674;SDS011;51090;51.512;11.332;2023-01-19T11:09:08;11.35;;;6.07;;
64674;SDS011;51090;51.512;11.332;2023-01-19T11:11:45;10.38;;;5.25;;
64674;SDS011;51090;51.512;11.332;2023-01-19T11:14:22;10.35;;;5.57;;
64674;SDS011;51090;51.512;11.332;2023-01-19T11:16:58;11.80;;;5.07;;
64674;SDS011;51090;51.512;11.332;2023-01-19T11:19:28;14.32;;;6.55;;
64674;SDS011;51090;51.512;11.332;2023-01-19T11:25:01;13.90;;;6.00;;
64674;SDS011;51090;51.512;11.332;2023-01-19T11:27:29;9.47;;;5.07;;
64674;SDS011;51090;51.512;11.332;2023-01-19T11:30:19;9.75;;;5.60;;
64674;SDS011;51090;51.512;11.332;2023-01-19T11:32:48;12.13;;;5.63;;
64674;SDS011;51090;51.512;11.332;2023-01-19T11:38:06;8.65;;;4.78;;
64674;SDS011;51090;51.512;11.332;2023-01-19T11:43:20;16.98;;;6.07;;
64674;SDS011;51090;51.512;11.332;2023-01-19T11:45:48;18.98;;;6.85;;
64674;SDS011;51090;51.512;11.332;2023-01-19T11:48:18;15.77;;;6.07;;
64674;SDS011;51090;51.512;11.332;2023-01-19T11:51:14;14.68;;;5.82;;
64674;SDS011;51090;51.512;11.332;2023-01-19T11:53:45;13.43;;;6.28;;
64674;SDS011;51090;51.512;11.332;2023-01-19T11:56:16;11.25;;;5.47;;
64674;SDS011;51090;51.512;11.332;2023-01-19T11:58:48;9.98;;;4.68;;
64674;SDS011;51090;51.512;11.332;2023-01-19T12:01:27;9.10;;;4.45;;
64674;SDS011;51090;51.512;11.332;2023-01-19T12:06:45;8.35;;;5.05;;
64674;SDS011;51090;51.512;11.332;2023-01-19T12:09:19;11.48;;;6.00;;
64674;SDS011;51090;51.512;11.332;2023-01-19T12:11:52;14.20;;;6.35;;
64674;SDS011;51090;51.512;11.332;2023-01-19T12:14:27;15.80;;;7.55;;
64674;SDS011;51090;51.512;11.332;2023-01-19T12:17:12;14.00;;;7.55;;
64674;SDS011;51090;51.512;11.332;2023-01-19T12:19:53;16.80;;;6.70;;
64674;SDS011;51090;51.512;11.332;2023-01-19T12:22:26;11.65;;;6.20;;
64674;SDS011;51090;51.512;11.332;2023-01-19T12:24:56;16.23;;;7.43;;
64674;SDS011;51090;51.512;11.332;2023-01-19T12:27:43;11.25;;;6.40;;
64674;SDS011;51090;51.512;11.332;2023-01-19T12:30:23;9.55;;;5.65;;
64674;SDS011;51090;51.512;11.332;2023-01-19T12:32:51;10.07;;;4.63;;
64674;SDS011;51090;51.512;11.332;2023-01-19T12:36:00;10.05;;;5.07;;
64674;SDS011;51090;51.512;11.332;2023-01-19T12:41:40;13.30;;;4.32;;
64674;SDS011;51090;51.512;11.332;2023-01-19T12:46:45;8.55;;;4.40;;
64674;SDS011;51090;51.512;11.332;2023-01-19T12:57:39;11.15;;;5.30;;
64674;SDS011;51090;51.512;11.332;2023-01-19T13:02:57;11.95;;;5.68;;
64674;SDS011;51090;51.512;11.332;2023-01-19T13:13:30;11.18;;;5.45;;
64674;SDS011;51090;51.512;11.332;2023-01-19T13:18:41;9.48;;;5.00;;
64674;SDS011;51090;51.512;11.332;2023-01-19T13:24:13;9.35;;;5.35;;
64674;SDS011;51090;51.512;11.332;2023-01-19T13:29:35;10.98;;;5.05;;
64674;SDS011;51090;51.512;11.332;2023-01-19T13:32:01;9.98;;;4.70;;
64674;SDS011;51090;51.512;11.332;2023-01-19T13:34:44;8.48;;;5.03;;
64674;SDS011;51090;51.512;11.332;2023-01-19T13:37:28;10.27;;;4.82;;
64674;SDS011;51090;51.512;11.332;2023-01-19T13:40:05;9.07;;;5.22;;
64674;SDS011;51090;51.512;11.332;2023-01-19T13:42:39;9.95;;;4.28;;
64674;SDS011;51090;51.512;11.332;2023-01-19T13:47:51;7.97;;;4.47;;
64674;SDS011;51090;51.512;11.332;2023-01-19T13:50:19;9.07;;;4.53;;
64674;SDS011;51090;51.512;11.332;2023-01-19T13:52:54;9.75;;;4.97;;
64674;SDS011;51090;51.512;11.332;2023-01-19T13:55:21;9.13;;;4.70;;
64674;SDS011;51090;51.512;11.332;2023-01-19T13:57:48;9.68;;;5.40;;
64674;SDS011;51090;51.512;11.332;2023-01-19T14:00:16;9.27;;;5.00;;
64674;SDS011;51090;51.512;11.332;2023-01-19T14:05:49;9.63;;;4.93;;
64674;SDS011;51090;51.512;11.332;2023-01-19T14:08:18;7.45;;;4.18;;
64674;SDS011;51090;51.512;11.332;2023-01-19T14:13:29;9.55;;;4.28;;
64674;SDS011;51090;51.512;11.332;2023-01-19T14:15:59;7.03;;;3.67;;
64674;SDS011;51090;51.512;11.332;2023-01-19T14:18:57;7.30;;;4.53;;
64674;SDS011;51090;51.512;11.332;2023-01-19T14:21:24;7.28;;;4.32;;
64674;SDS011;51090;51.512;11.332;2023-01-19T14:29:32;6.32;;;3.65;;
64674;SDS011;51090;51.512;11.332;2023-01-19T14:34:29;8.63;;;3.97;;
64674;SDS011;51090;51.512;11.332;2023-01-19T14:37:10;8.98;;;4.38;;
64674;SDS011;51090;51.512;11.332;2023-01-19T14:39:57;7.00;;;4.53;;
64674;SDS011;51090;51.512;11.332;2023-01-19T14:42:42;8.02;;;4.45;;
64674;SDS011;51090;51.512;11.332;2023-01-19T14:45:28;7.10;;;4.13;;
64674;SDS011;51090;51.512;11.332;2023-01-19T14:47:59;9.90;;;4.90;;
64674;SDS011;51090;51.512;11.332;2023-01-19T14:50:32;10.00;;;5.30;;
64674;SDS011;51090;51.512;11.332;2023-01-19T14:53:05;7.85;;;4.88;;
64674;SDS011;51090;51.512;11.332;2023-01-19T14:56:14;9.25;;;5.15;;
64674;SDS011;51090;51.512;11.332;2023-01-19T14:58:33;9.43;;;4.65;;
64674;SDS011;51090;51.512;11.332;2023-01-19T15:00:59;9.32;;;4.97;;
64674;SDS011;51090;51.512;11.332;2023-01-19T15:03:26;8.85;;;5.72;;
64674;SDS011;51090;51.512;11.332;2023-01-19T15:05:55;10.27;;;5.07;;
64674;SDS011;51090;51.512;11.332;2023-01-19T15:08:24;10.80;;;5.85;;
64674;SDS011;51090;51.512;11.332;2023-01-19T15:10:54;12.60;;;6.85;;
64674;SDS011;51090;51.512;11.332;2023-01-19T15:13:22;11.63;;;6.28;;
64674;SDS011;51090;51.512;11.332;2023-01-19T15:15:50;12.48;;;6.43;;
64674;SDS011;51090;51.512;11.332;2023-01-19T15:18:18;9.95;;;5.40;;
64674;SDS011;51090;51.512;11.332;2023-01-19T15:20:49;10.68;;;5.30;;
64674;SDS011;51090;51.512;11.332;2023-01-19T15:23:14;8.68;;;5.28;;
64674;SDS011;51090;51.512;11.332;2023-01-19T15:25:40;8.15;;;4.78;;
64674;SDS011;51090;51.512;11.332;2023-01-19T15:28:09;11.90;;;5.80;;
64674;SDS011;51090;51.512;11.332;2023-01-19T15:30:38;13.07;;;6.77;;
64674;SDS011;51090;51.512;11.332;2023-01-19T15:33:04;13.20;;;6.70;;
64674;SDS011;51090;51.512;11.332;2023-01-19T15:35:30;9.82;;;5.40;;
64674;SDS011;51090;51.512;11.332;2023-01-19T15:37:55;11.07;;;5.95;;
64674;SDS011;51090;51.512;11.332;2023-01-19T15:40:22;12.02;;;5.93;;
64674;SDS011;51090;51.512;11.332;2023-01-19T15:42:48;11.48;;;5.97;;
64674;SDS011;51090;51.512;11.332;2023-01-19T15:48:01;12.45;;;5.82;;
64674;SDS011;51090;51.512;11.332;2023-01-19T15:50:32;10.20;;;5.40;;
64674;SDS011;51090;51.512;11.332;2023-01-19T15:53:01;9.15;;;5.43;;
64674;SDS011;51090;51.512;11.332;2023-01-19T15:55:27;10.40;;;5.47;;
64674;SDS011;51090;51.512;11.332;2023-01-19T15:57:53;7.43;;;4.43;;
64674;SDS011;51090;51.512;11.332;2023-01-19T16:00:25;6.60;;;3.85;;
64674;SDS011;51090;51.512;11.332;2023-01-19T16:02:55;6.72;;;3.85;;
64674;SDS011;51090;51.512;11.332;2023-01-19T16:05:22;7.45;;;4.57;;
64674;SDS011;51090;51.512;11.332;2023-01-19T16:07:47;7.90;;;3.40;;
64674;SDS011;51090;51.512;11.332;2023-01-19T16:10:14;18.83;;;6.97;;
64674;SDS011;51090;51.512;11.332;2023-01-19T16:12:41;18.33;;;7.22;;
64674;SDS011;51090;51.512;11.332;2023-01-19T16:15:08;23.88;;;9.38;;
64674;SDS011;51090;51.512;11.332;2023-01-19T16:17:35;16.70;;;7.75;;
64674;SDS011;51090;51.512;11.332;2023-01-19T16:20:04;30.60;;;11.63;;
64674;SDS011;51090;51.512;11.332;2023-01-19T16:22:31;19.20;;;8.82;;
64674;SDS011;51090;51.512;11.332;2023-01-19T16:24:57;14.88;;;7.07;;
64674;SDS011;51090;51.512;11.332;2023-01-19T16:27:24;9.45;;;5.25;;